Time;durP1;ratioP1;P1;durP2;ratioP2;P2;SDS_P1;SDS_P2;PMS_P1;PMS_P2;Temp;Humidity;BMP_temperature;BMP_pressure;BME280_temperature;BME280_humidity;BME280_pressure;Samples;Min_cycle;Max_cycle;Signal;HPM_P1;HPM_P2
2022/06/27 00:00:31;;;;;;;;;3.00;3.00;;;;;;;;5290221;28;8846;-69
2022/06/27 00:03:02;;;;;;;;;4.25;4.25;;;;;;;;5290418;28;8770;-69
2022/06/27 00:05:34;;;;;;;;;5.50;5.50;;;;;;;;5290331;28;8770;-69
2022/06/27 00:08:05;;;;;;;;;4.75;4.75;;;;;;;;5289007;28;8793;-69
2022/06/27 00:10:36;;;;;;;;;5.00;5.00;;;;;;;;5254519;28;8782;-69
2022/06/27 00:13:07;;;;;;;;;3.00;3.00;;;;;;;;5289789;27;8758;-69
2022/06/27 00:15:38;;;;;;;;;3.75;3.75;;;;;;;;5272369;28;8846;-69
2022/06/27 00:18:28;;;;;;;;;4.50;4.50;;;;;;;;5297937;27;8768;-69
2022/06/27 00:20:59;;;;;;;;;3.75;3.75;;;;;;;;5311136;27;8772;-69
2022/06/27 00:23:30;;;;;;;;;4.00;4.00;;;;;;;;5302554;27;9810;-69
2022/06/27 00:26:02;;;;;;;;;5.75;5.75;;;;;;;;5271549;28;8762;-69
2022/06/27 00:28:33;;;;;;;;;7.50;7.50;;;;;;;;5289934;28;8766;-69
2022/06/27 00:31:04;;;;;;;;;6.75;6.50;;;;;;;;5254711;28;8774;-69
2022/06/27 00:33:35;;;;;;;;;6.50;6.50;;;;;;;;5271500;28;8778;-69
2022/06/27 00:36:25;;;;;;;;;3.25;3.25;;;;;;;;5290174;28;8806;-69
2022/06/27 00:38:57;;;;;;;;;7.25;7.25;;;;;;;;5289812;27;8782;-69
2022/06/27 00:41:28;;;;;;;;;8.00;8.00;;;;;;;;5289495;28;8842;-68
2022/06/27 00:43:59;;;;;;;;;8.00;7.50;;;;;;;;5289462;28;8782;-68
2022/06/27 00:46:49;;;;;;;;;8.75;8.75;;;;;;;;5289826;28;8778;-68
2022/06/27 00:49:21;;;;;;;;;9.50;9.50;;;;;;;;5271340;28;8893;-70
2022/06/27 00:51:52;;;;;;;;;10.50;10.50;;;;;;;;5271272;28;8831;-70
2022/06/27 00:54:23;;;;;;;;;8.75;8.75;;;;;;;;5249936;28;8768;-70
2022/06/27 00:56:54;;;;;;;;;6.50;6.50;;;;;;;;5250321;28;8837;-69
2022/06/27 00:59:26;;;;;;;;;9.50;9.25;;;;;;;;5268273;27;8819;-69
2022/06/27 01:01:58;;;;;;;;;3.50;3.25;;;;;;;;5275234;27;8756;-70
2022/06/27 01:04:29;;;;;;;;;9.25;9.25;;;;;;;;5273096;27;9516;-70
2022/06/27 01:07:01;;;;;;;;;7.75;7.75;;;;;;;;5291916;27;8803;-70
2022/06/27 01:09:32;;;;;;;;;8.25;7.50;;;;;;;;5292006;27;8767;-70
2022/06/27 01:12:04;;;;;;;;;9.25;9.25;;;;;;;;5310086;27;9493;-70
2022/06/27 01:14:35;;;;;;;;;10.50;10.50;;;;;;;;5233351;28;8802;-70
2022/06/27 01:17:06;;;;;;;;;10.25;10.25;;;;;;;;5267849;28;8784;-70
2022/06/27 01:19:39;;;;;;;;;8.75;8.75;;;;;;;;5254734;27;8779;-70
2022/06/27 01:22:10;;;;;;;;;5.75;5.75;;;;;;;;5274572;27;8852;-70
2022/06/27 01:25:00;;;;;;;;;11.80;11.80;;;;;;;;5277429;27;8791;-70
2022/06/27 01:27:49;;;;;;;;;9.50;9.50;;;;;;;;5310206;27;9598;-70
2022/06/27 01:30:39;;;;;;;;;9.50;9.50;;;;;;;;5310368;27;8768;-70
2022/06/27 01:33:11;;;;;;;;;7.50;7.50;;;;;;;;5309598;27;9499;-70
2022/06/27 01:35:42;;;;;;;;;8.00;8.00;;;;;;;;5291458;27;8768;-70
2022/06/27 01:38:14;;;;;;;;;8.25;8.25;;;;;;;;5282974;28;8797;-70
2022/06/27 01:41:04;;;;;;;;;7.50;7.50;;;;;;;;5273433;28;8857;-70
2022/06/27 01:43:36;;;;;;;;;7.00;7.00;;;;;;;;5270698;28;8816;-70
2022/06/27 01:46:07;;;;;;;;;8.00;8.00;;;;;;;;5288445;28;8779;-70
2022/06/27 01:48:57;;;;;;;;;6.25;6.25;;;;;;;;5289111;28;8762;-69
2022/06/27 01:51:48;;;;;;;;;7.25;7.25;;;;;;;;5288765;28;8814;-68
2022/06/27 01:54:20;;;;;;;;;6.00;6.00;;;;;;;;5288995;27;8771;-68
2022/06/27 01:56:53;;;;;;;;;8.00;7.25;;;;;;;;5291263;27;8768;-69
2022/06/27 01:59:44;;;;;;;;;6.25;6.25;;;;;;;;5249504;28;8826;-68
2022/06/27 02:02:17;;;;;;;;;6.00;6.00;;;;;;;;5232802;28;8792;-69
2022/06/27 02:04:49;;;;;;;;;7.25;7.25;;;;;;;;5249169;28;8904;-69
2022/06/27 02:07:20;;;;;;;;;5.25;5.25;;;;;;;;5249034;28;8819;-69
2022/06/27 02:10:10;;;;;;;;;6.75;6.75;;;;;;;;5280829;28;8760;-70
2022/06/27 02:12:41;;;;;;;;;6.75;6.75;;;;;;;;5238354;28;8786;-70
2022/06/27 02:15:13;;;;;;;;;6.25;6.25;;;;;;;;5288250;28;8758;-70
2022/06/27 02:17:45;;;;;;;;;3.50;3.50;;;;;;;;5257521;27;8784;-70
2022/06/27 02:20:18;;;;;;;;;4.75;4.75;;;;;;;;5291475;27;8775;-69
2022/06/27 02:22:50;;;;;;;;;4.25;4.25;;;;;;;;5273973;27;8802;-69
2022/06/27 02:25:21;;;;;;;;;5.50;5.50;;;;;;;;5291047;27;8792;-68
2022/06/27 02:27:52;;;;;;;;;6.25;6.25;;;;;;;;5308954;27;8792;-69
2022/06/27 02:30:24;;;;;;;;;3.50;3.50;;;;;;;;5273981;27;8821;-70
2022/06/27 02:32:55;;;;;;;;;5.75;5.75;;;;;;;;5273735;27;8756;-69
2022/06/27 02:35:27;;;;;;;;;5.75;5.75;;;;;;;;5313671;27;8792;-69
2022/06/27 02:37:59;;;;;;;;;4.50;4.50;;;;;;;;5271090;28;8882;-69
2022/06/27 02:40:48;;;;;;;;;3.25;3.25;;;;;;;;5292036;28;8778;-69
2022/06/27 02:43:22;;;;;;;;;6.00;5.00;;;;;;;;5292365;28;8781;-69
2022/06/27 02:45:54;;;;;;;;;4.00;4.00;;;;;;;;5257344;28;8774;-69
2022/06/27 02:48:30;;;;;;;;;4.75;4.75;;;;;;;;5291977;28;8862;-69
2022/06/27 02:51:05;;;;;;;;;5.50;5.50;;;;;;;;5273651;28;8803;-70
2022/06/27 02:53:42;;;;;;;;;3.00;3.00;;;;;;;;5286901;27;8784;-70
2022/06/27 02:56:42;;;;;;;;;4.50;4.50;;;;;;;;5281237;27;8791;-70
2022/06/27 02:59:17;;;;;;;;;7.50;4.50;;;;;;;;5294845;27;9446;-70
2022/06/27 03:01:49;;;;;;;;;2.25;2.25;;;;;;;;5294781;27;8844;-70
2022/06/27 03:04:25;;;;;;;;;5.50;4.25;;;;;;;;5261401;27;8759;-70
2022/06/27 03:06:56;;;;;;;;;6.25;6.00;;;;;;;;5292367;27;8819;-70
2022/06/27 03:09:27;;;;;;;;;7.50;7.00;;;;;;;;5256368;28;8781;-70
2022/06/27 03:11:58;;;;;;;;;3.00;3.00;;;;;;;;5273314;27;8775;-71
2022/06/27 03:14:31;;;;;;;;;4.25;3.50;;;;;;;;5277387;27;9504;-70
2022/06/27 03:17:02;;;;;;;;;5.50;5.50;;;;;;;;5312472;27;8760;-70
2022/06/27 03:19:40;;;;;;;;;4.50;4.50;;;;;;;;5278553;27;8871;-69
2022/06/27 03:22:29;;;;;;;;;4.00;4.00;;;;;;;;5294129;27;8760;-70
2022/06/27 03:25:00;;;;;;;;;4.25;4.25;;;;;;;;5294223;27;8780;-69
2022/06/27 03:27:34;;;;;;;;;4.00;4.00;;;;;;;;5290131;27;8848;-69
2022/06/27 03:30:05;;;;;;;;;5.00;5.00;;;;;;;;5293887;27;8750;-68
2022/06/27 03:32:37;;;;;;;;;3.00;3.00;;;;;;;;5287431;28;8790;-69
2022/06/27 03:35:13;;;;;;;;;4.00;4.00;;;;;;;;5272794;28;8858;-69
2022/06/27 03:37:46;;;;;;;;;4.25;4.25;;;;;;;;5255994;28;8802;-69
2022/06/27 03:40:18;;;;;;;;;4.50;4.50;;;;;;;;5290809;28;8785;-69
2022/06/27 03:42:54;;;;;;;;;7.00;7.00;;;;;;;;5255935;28;8969;-70
2022/06/27 03:45:26;;;;;;;;;9.00;9.00;;;;;;;;5271238;28;9537;-69
2022/06/27 03:47:58;;;;;;;;;6.00;6.00;;;;;;;;5266203;27;8807;-69
2022/06/27 03:50:53;;;;;;;;;12.75;12.75;;;;;;;;5268938;27;8786;-70
2022/06/27 03:53:24;;;;;;;;;8.75;8.75;;;;;;;;5279763;28;9379;-70
2022/06/27 03:56:13;;;;;;;;;6.00;6.00;;;;;;;;5274854;28;9515;-70
2022/06/27 03:58:44;;;;;;;;;4.75;4.75;;;;;;;;5255841;28;8769;-71
2022/06/27 04:01:16;;;;;;;;;9.75;9.75;;;;;;;;5272517;28;8785;-69
2022/06/27 04:04:05;;;;;;;;;10.50;10.50;;;;;;;;5290371;28;8846;-69
2022/06/27 04:06:39;;;;;;;;;22.50;22.50;;;;;;;;5255530;27;8797;-69
2022/06/27 04:09:10;;;;;;;;;8.00;8.00;;;;;;;;5251277;28;8784;-69
2022/06/27 04:11:59;;;;;;;;;4.25;4.25;;;;;;;;5288029;27;8772;-70
2022/06/27 04:14:56;;;;;;;;;2.50;2.50;;;;;;;;5311092;27;9489;-69
2022/06/27 04:17:49;;;;;;;;;6.00;6.00;;;;;;;;5309586;27;8756;-69
2022/06/27 04:20:39;;;;;;;;;6.00;6.00;;;;;;;;5295711;27;8815;-69
2022/06/27 04:23:11;;;;;;;;;5.75;5.75;;;;;;;;5276102;27;8760;-70
2022/06/27 04:26:01;;;;;;;;;5.50;5.50;;;;;;;;5308383;27;8866;-70
2022/06/27 04:28:32;;;;;;;;;5.00;5.00;;;;;;;;5238155;28;8777;-68
2022/06/27 04:31:22;;;;;;;;;4.00;4.00;;;;;;;;5289796;28;9509;-69
2022/06/27 04:33:53;;;;;;;;;5.00;5.00;;;;;;;;5255371;27;8796;-69
2022/06/27 04:36:45;;;;;;;;;9.75;9.75;;;;;;;;5278577;27;8764;-69
2022/06/27 04:39:19;;;;;;;;;10.50;10.00;;;;;;;;5276034;27;8766;-69
2022/06/27 04:41:58;;;;;;;;;5.75;5.75;;;;;;;;5275451;27;8799;-70
2022/06/27 04:44:47;;;;;;;;;4.75;4.75;;;;;;;;5294371;27;8786;-72
2022/06/27 04:47:19;;;;;;;;;8.00;6.75;;;;;;;;5265015;28;8805;-71
2022/06/27 04:50:07;;;;;;;;;8.25;7.75;;;;;;;;5285853;28;8797;-69
2022/06/27 04:52:38;;;;;;;;;3.00;3.00;;;;;;;;5254625;28;8822;-70
2022/06/27 04:55:28;;;;;;;;;4.75;4.75;;;;;;;;5252281;28;8952;-69
2022/06/27 04:58:18;;;;;;;;;7.25;7.25;;;;;;;;5255702;28;9005;-69
2022/06/27 05:00:50;;;;;;;;;2.25;2.25;;;;;;;;5254242;28;8766;-69
2022/06/27 05:03:39;;;;;;;;;4.75;4.75;;;;;;;;5253754;27;8754;-71
2022/06/27 05:06:15;;;;;;;;;7.00;7.00;;;;;;;;5237852;28;8896;-69
2022/06/27 05:08:47;;;;;;;;;8.50;8.50;;;;;;;;5270615;28;9512;-69
2022/06/27 05:11:20;;;;;;;;;3.00;3.00;;;;;;;;5270372;28;8892;-70
2022/06/27 05:13:51;;;;;;;;;5.00;5.00;;;;;;;;5270634;28;8784;-69
2022/06/27 05:16:40;;;;;;;;;7.50;7.50;;;;;;;;5284804;28;8769;-69
2022/06/27 05:19:13;;;;;;;;;4.50;4.50;;;;;;;;5253222;28;9506;-69
2022/06/27 05:21:44;;;;;;;;;5.75;5.75;;;;;;;;5253622;28;8796;-69
2022/06/27 05:24:17;;;;;;;;;5.50;5.50;;;;;;;;5284878;27;9553;-69
2022/06/27 05:26:49;;;;;;;;;8.75;8.75;;;;;;;;5274100;27;8803;-68
2022/06/27 05:29:22;;;;;;;;;5.25;5.25;;;;;;;;5282253;28;8890;-69
2022/06/27 05:31:54;;;;;;;;;5.25;5.25;;;;;;;;5221638;27;8805;-70
2022/06/27 05:34:27;;;;;;;;;7.50;7.50;;;;;;;;5268652;28;8798;-69
2022/06/27 05:36:58;;;;;;;;;5.75;5.75;;;;;;;;5288012;28;8854;-68
2022/06/27 05:39:29;;;;;;;;;6.00;6.00;;;;;;;;5237230;28;8758;-69
2022/06/27 05:42:01;;;;;;;;;6.75;6.75;;;;;;;;5286797;28;8789;-69
2022/06/27 05:44:33;;;;;;;;;6.50;6.00;;;;;;;;5253294;28;8845;-69
2022/06/27 05:47:05;;;;;;;;;7.00;7.00;;;;;;;;5253501;28;8793;-69
2022/06/27 05:49:38;;;;;;;;;5.75;5.75;;;;;;;;5270800;28;8876;-69
2022/06/27 05:52:11;;;;;;;;;5.75;5.75;;;;;;;;5253580;28;8770;-70
2022/06/27 05:55:01;;;;;;;;;6.50;6.50;;;;;;;;5270055;28;8788;-69
2022/06/27 05:57:34;;;;;;;;;8.00;8.00;;;;;;;;5270461;28;8770;-70
2022/06/27 06:00:06;;;;;;;;;7.25;7.25;;;;;;;;5286928;28;8770;-70
2022/06/27 06:02:58;;;;;;;;;5.75;5.50;;;;;;;;5269856;28;9546;-69
2022/06/27 06:05:29;;;;;;;;;4.50;4.50;;;;;;;;5269876;28;8838;-69
2022/06/27 06:08:02;;;;;;;;;6.25;6.25;;;;;;;;5270239;28;8806;-69
2022/06/27 06:10:33;;;;;;;;;2.67;2.67;;;;;;;;5257672;28;8762;-69
2022/06/27 06:13:04;;;;;;;;;4.50;4.50;;;;;;;;5274360;28;8758;-71
2022/06/27 06:15:38;;;;;;;;;6.00;6.00;;;;;;;;5257307;28;8778;-70
2022/06/27 06:18:09;;;;;;;;;6.75;6.75;;;;;;;;5274292;28;8777;-70
2022/06/27 06:20:40;;;;;;;;;6.00;6.00;;;;;;;;5274179;28;8782;-70
2022/06/27 06:23:12;;;;;;;;;7.75;7.75;;;;;;;;5308395;27;8781;-69
2022/06/27 06:25:45;;;;;;;;;6.75;6.75;;;;;;;;5274095;28;9626;-69
2022/06/27 06:28:16;;;;;;;;;3.75;3.75;;;;;;;;5292428;28;8806;-70
2022/06/27 06:31:07;;;;;;;;;5.50;5.50;;;;;;;;5259571;28;8770;-70
2022/06/27 06:33:41;;;;;;;;;3.50;3.50;;;;;;;;5273976;28;8760;-70
2022/06/27 06:36:16;;;;;;;;;6.50;6.50;;;;;;;;5257278;28;8854;-70
2022/06/27 06:38:49;;;;;;;;;6.00;6.00;;;;;;;;5240586;28;8754;-69
2022/06/27 06:41:20;;;;;;;;;6.50;5.75;;;;;;;;5257288;28;8858;-69
2022/06/27 06:43:52;;;;;;;;;5.75;5.75;;;;;;;;5256688;28;8770;-69
2022/06/27 06:46:56;;;;;;;;;7.75;7.75;;;;;;;;5252154;28;8790;-70
2022/06/27 06:49:36;;;;;;;;;7.00;7.00;;;;;;;;5289217;28;9532;-70
2022/06/27 06:52:07;;;;;;;;;4.50;4.50;;;;;;;;5273443;28;8794;-70
2022/06/27 06:54:40;;;;;;;;;7.25;7.25;;;;;;;;5273280;28;8746;-70
2022/06/27 06:57:29;;;;;;;;;5.50;5.50;;;;;;;;5292142;28;8770;-69
2022/06/27 07:00:00;;;;;;;;;3.00;3.00;;;;;;;;5256459;28;8769;-70
2022/06/27 07:02:52;;;;;;;;;4.75;4.75;;;;;;;;5259258;28;8762;-70
2022/06/27 07:05:25;;;;;;;;;2.50;2.50;;;;;;;;5256295;28;8778;-70
2022/06/27 07:07:56;;;;;;;;;5.50;5.50;;;;;;;;5273645;28;8809;-70
2022/06/27 07:10:46;;;;;;;;;7.25;7.25;;;;;;;;5291267;28;8746;-70
2022/06/27 07:13:19;;;;;;;;;4.00;4.00;;;;;;;;5273188;28;8794;-70
2022/06/27 07:15:50;;;;;;;;;7.00;7.00;;;;;;;;5256304;28;8781;-70
2022/06/27 07:18:24;;;;;;;;;8.75;8.75;;;;;;;;5256248;28;8886;-70
2022/06/27 07:20:55;;;;;;;;;5.25;5.25;;;;;;;;5272976;28;8778;-70
2022/06/27 07:23:26;;;;;;;;;3.75;3.75;;;;;;;;5273005;28;8888;-70
2022/06/27 07:25:57;;;;;;;;;6.00;6.00;;;;;;;;5306835;27;8890;-70
2022/06/27 07:28:29;;;;;;;;;5.00;5.00;;;;;;;;5306718;27;8826;-70
2022/06/27 07:31:01;;;;;;;;;4.50;4.50;;;;;;;;5255904;28;8811;-70
2022/06/27 07:33:33;;;;;;;;;5.50;5.50;;;;;;;;5272714;28;8781;-70
2022/06/27 07:36:05;;;;;;;;;4.50;4.50;;;;;;;;5256201;28;8762;-69
2022/06/27 07:38:38;;;;;;;;;6.25;6.25;;;;;;;;5272692;28;8769;-70
2022/06/27 07:41:09;;;;;;;;;5.75;5.75;;;;;;;;5272291;28;8769;-70
2022/06/27 07:43:44;;;;;;;;;5.25;5.25;;;;;;;;5272592;28;8777;-70
2022/06/27 07:46:25;;;;;;;;;4.50;4.50;;;;;;;;5288412;28;8793;-69
2022/06/27 07:48:56;;;;;;;;;6.25;6.25;;;;;;;;5272418;28;8770;-70
2022/06/27 07:51:27;;;;;;;;;6.67;6.67;;;;;;;;5272018;28;8808;-69
2022/06/27 07:53:58;;;;;;;;;5.00;5.00;;;;;;;;5290584;28;8758;-69
2022/06/27 07:56:29;;;;;;;;;7.50;7.50;;;;;;;;5272379;28;8774;-69
2022/06/27 07:59:02;;;;;;;;;5.00;5.00;;;;;;;;5272295;28;8762;-70
2022/06/27 08:01:35;;;;;;;;;7.00;7.00;;;;;;;;5289159;28;9496;-70
2022/06/27 08:04:24;;;;;;;;;5.50;5.50;;;;;;;;5286979;28;8793;-69
2022/06/27 08:06:56;;;;;;;;;5.75;5.75;;;;;;;;5254987;28;8828;-69
2022/06/27 08:09:28;;;;;;;;;7.00;7.00;;;;;;;;5272010;28;9504;-69
2022/06/27 08:12:00;;;;;;;;;8.00;8.00;;;;;;;;5255183;28;8771;-70
2022/06/27 08:14:50;;;;;;;;;7.50;7.50;;;;;;;;5290289;28;8782;-69
2022/06/27 08:17:23;;;;;;;;;5.00;5.00;;;;;;;;5272180;28;9547;-69
2022/06/27 08:19:54;;;;;;;;;6.50;6.50;;;;;;;;5272047;28;8766;-69
2022/06/27 08:22:25;;;;;;;;;10.75;10.75;;;;;;;;5271614;28;8781;-70
2022/06/27 08:24:57;;;;;;;;;11.25;11.25;;;;;;;;5271843;28;8790;-69
2022/06/27 08:27:48;;;;;;;;;7.25;7.25;;;;;;;;5271782;28;8890;-69
2022/06/27 08:30:25;;;;;;;;;7.25;7.25;;;;;;;;5254594;28;9461;-69
2022/06/27 08:32:58;;;;;;;;;5.50;5.50;;;;;;;;5271199;28;8754;-68
2022/06/27 08:35:29;;;;;;;;;8.50;8.50;;;;;;;;5254791;28;8766;-69
2022/06/27 08:38:00;;;;;;;;;7.50;6.50;;;;;;;;5289920;28;9610;-71
2022/06/27 08:40:31;;;;;;;;;5.25;5.25;;;;;;;;5271302;28;8762;-71
2022/06/27 08:43:02;;;;;;;;;14.50;14.50;;;;;;;;5254463;28;8893;-71
2022/06/27 08:45:34;;;;;;;;;8.00;7.00;;;;;;;;5254315;28;8758;-71
2022/06/27 08:48:09;;;;;;;;;14.00;14.00;;;;;;;;5289441;28;8918;-69
2022/06/27 08:50:41;;;;;;;;;19.40;17.20;;;;;;;;5271436;28;8793;-70
2022/06/27 08:53:13;;;;;;;;;18.60;17.00;;;;;;;;5237648;28;8782;-70
2022/06/27 08:55:48;;;;;;;;;19.60;19.60;;;;;;;;5254310;28;9465;-70
2022/06/27 08:58:38;;;;;;;;;18.80;18.80;;;;;;;;5274478;28;8824;-70
2022/06/27 09:01:29;;;;;;;;;19.60;19.60;;;;;;;;5289222;28;8786;-70
2022/06/27 09:04:03;;;;;;;;;10.25;10.25;;;;;;;;5289088;28;8754;-70
2022/06/27 09:06:51;;;;;;;;;12.25;12.25;;;;;;;;5288083;28;8758;-69
2022/06/27 09:09:24;;;;;;;;;10.75;10.50;;;;;;;;5271264;28;8762;-70
2022/06/27 09:11:56;;;;;;;;;14.25;14.25;;;;;;;;5271149;28;9538;-68
2022/06/27 09:14:31;;;;;;;;;16.00;16.00;;;;;;;;5288851;28;8774;-69
2022/06/27 09:17:09;;;;;;;;;17.50;17.50;;;;;;;;5271192;28;8893;-70
2022/06/27 09:19:54;;;;;;;;;5.25;5.25;;;;;;;;5254476;28;8774;-70
2022/06/27 09:22:32;;;;;;;;;5.00;5.00;;;;;;;;5289034;28;8812;-68
2022/06/27 09:25:24;;;;;;;;;19.25;19.25;;;;;;;;5270540;28;9485;-69
2022/06/27 09:27:55;;;;;;;;;16.00;16.00;;;;;;;;5265947;28;8924;-70
2022/06/27 09:30:27;;;;;;;;;12.40;12.40;;;;;;;;5266424;28;9502;-70
2022/06/27 09:32:59;;;;;;;;;13.00;13.00;;;;;;;;5266458;28;8815;-70
2022/06/27 09:35:36;;;;;;;;;10.75;10.75;;;;;;;;5266097;28;8907;-69
2022/06/27 09:38:08;;;;;;;;;11.50;11.50;;;;;;;;5249406;28;8847;-68
2022/06/27 09:40:40;;;;;;;;;7.75;7.50;;;;;;;;5267590;28;8781;-68
2022/06/27 09:43:13;;;;;;;;;9.00;9.00;;;;;;;;5266169;28;8825;-69
2022/06/27 09:45:44;;;;;;;;;2.00;2.00;;;;;;;;5267313;28;8789;-69
2022/06/27 09:48:17;;;;;;;;;7.00;7.00;;;;;;;;5266023;28;8877;-70
2022/06/27 09:50:48;;;;;;;;;6.50;6.50;;;;;;;;5232711;28;8813;-70
2022/06/27 09:53:25;;;;;;;;;14.50;14.50;;;;;;;;5249023;28;8817;-69
2022/06/27 09:55:58;;;;;;;;;11.50;11.00;;;;;;;;5249465;28;8780;-68
2022/06/27 09:58:30;;;;;;;;;13.50;13.50;;;;;;;;5267285;28;8917;-68
2022/06/27 10:01:04;;;;;;;;;11.50;11.50;;;;;;;;5249494;28;8784;-69
2022/06/27 10:03:36;;;;;;;;;10.50;10.50;;;;;;;;5265906;28;8790;-69
2022/06/27 10:06:09;;;;;;;;;11.75;11.75;;;;;;;;5265931;28;8782;-69
2022/06/27 10:08:46;;;;;;;;;6.50;5.50;;;;;;;;5265835;28;8812;-70
2022/06/27 10:11:17;;;;;;;;;6.00;6.00;;;;;;;;5249321;28;8756;-68
2022/06/27 10:14:08;;;;;;;;;9.25;9.25;;;;;;;;5249266;28;9551;-68
2022/06/27 10:16:55;;;;;;;;;12.50;12.50;;;;;;;;5265821;28;8810;-68
2022/06/27 10:20:01;;;;;;;;;13.00;13.00;;;;;;;;5266453;28;8792;-68
2022/06/27 10:22:33;;;;;;;;;9.75;9.75;;;;;;;;5266048;28;8811;-68
2022/06/27 10:25:23;;;;;;;;;5.00;5.00;;;;;;;;5266944;28;9535;-70
2022/06/27 10:30:42;;;;;;;;;10.25;10.25;;;;;;;;5253125;28;8762;-68
2022/06/27 10:33:22;;;;;;;;;9.00;9.00;;;;;;;;5269885;28;8924;-69
2022/06/27 10:36:02;;;;;;;;;5.75;5.75;;;;;;;;5236308;28;8777;-69
2022/06/27 10:38:34;;;;;;;;;9.50;9.50;;;;;;;;5253495;28;8766;-69
2022/06/27 10:41:18;;;;;;;;;5.00;5.00;;;;;;;;5287955;28;8774;-69
2022/06/27 10:43:50;;;;;;;;;6.75;6.50;;;;;;;;5287807;28;9402;-69
2022/06/27 10:46:21;;;;;;;;;8.50;8.50;;;;;;;;5287555;28;8928;-69
2022/06/27 10:48:56;;;;;;;;;7.75;7.50;;;;;;;;5288574;28;8790;-69
2022/06/27 10:51:29;;;;;;;;;8.25;8.25;;;;;;;;5287969;28;8804;-69
2022/06/27 10:54:06;;;;;;;;;2.25;2.25;;;;;;;;5287998;28;8769;-69
2022/06/27 10:56:41;;;;;;;;;6.75;6.75;;;;;;;;5256566;28;8769;-69
2022/06/27 10:59:17;;;;;;;;;6.50;6.50;;;;;;;;5257200;28;8754;-69
2022/06/27 11:01:57;;;;;;;;;5.50;5.50;;;;;;;;5273632;28;8762;-68
2022/06/27 11:04:47;;;;;;;;;9.25;9.25;;;;;;;;5258945;28;8762;-69
2022/06/27 11:07:19;;;;;;;;;16.75;16.25;;;;;;;;5272754;28;9563;-68
2022/06/27 11:09:50;;;;;;;;;9.00;9.00;;;;;;;;5291335;28;8773;-69
2022/06/27 11:12:26;;;;;;;;;5.50;5.50;;;;;;;;5273193;28;8788;-69
2022/06/27 11:15:15;;;;;;;;;1.00;1.00;;;;;;;;5291562;28;8766;-69
2022/06/27 11:17:46;;;;;;;;;5.25;5.25;;;;;;;;5273445;28;9500;-69
2022/06/27 11:20:17;;;;;;;;;6.00;6.00;;;;;;;;5291245;28;8789;-69
2022/06/27 11:22:51;;;;;;;;;2.00;2.00;;;;;;;;5291179;28;11344;-69
2022/06/27 11:25:24;;;;;;;;;3.75;3.75;;;;;;;;5291295;28;9576;-69
2022/06/27 11:27:56;;;;;;;;;0.25;0.25;;;;;;;;5291194;28;8817;-69
2022/06/27 11:33:20;;;;;;;;;2.00;2.00;;;;;;;;5273020;28;8800;-68
2022/06/27 11:35:52;;;;;;;;;0.00;0.00;;;;;;;;5256058;28;8770;-68
2022/06/27 11:38:24;;;;;;;;;1.75;1.75;;;;;;;;5272620;28;8766;-68
2022/06/27 11:41:03;;;;;;;;;0.25;0.25;;;;;;;;5291384;28;8766;-69
2022/06/27 11:43:49;;;;;;;;;2.25;2.25;;;;;;;;5272824;28;8763;-69
2022/06/27 11:46:46;;;;;;;;;11.00;11.00;;;;;;;;5290710;28;8754;-69
2022/06/27 11:49:27;;;;;;;;;1.00;1.00;;;;;;;;5239250;28;8777;-69
2022/06/27 11:52:02;;;;;;;;;2.00;2.00;;;;;;;;5255924;28;8785;-68
2022/06/27 11:54:53;;;;;;;;;2.75;2.75;;;;;;;;5275297;28;8769;-70
2022/06/27 11:57:25;;;;;;;;;0.25;0.25;;;;;;;;5238724;28;8766;-68
2022/06/27 11:59:57;;;;;;;;;0.00;0.00;;;;;;;;5255538;28;8770;-68
2022/06/27 12:02:50;;;;;;;;;0.00;0.00;;;;;;;;5273054;28;8746;-68
2022/06/27 12:05:22;;;;;;;;;1.50;1.50;;;;;;;;5254911;28;8769;-68
2022/06/27 12:07:58;;;;;;;;;1.00;1.00;;;;;;;;5271323;28;8810;-69
2022/06/27 12:13:39;;;;;;;;;1.00;1.00;;;;;;;;5290210;28;9257;-68
2022/06/27 12:16:11;;;;;;;;;1.50;1.50;;;;;;;;5255064;28;8893;-69
2022/06/27 12:18:44;;;;;;;;;3.25;3.25;;;;;;;;5306046;27;8786;-68
2022/06/27 12:21:15;;;;;;;;;1.50;1.50;;;;;;;;5254747;28;8777;-69
2022/06/27 12:23:46;;;;;;;;;3.00;3.00;;;;;;;;5290001;28;8855;-69
2022/06/27 12:26:36;;;;;;;;;1.50;1.50;;;;;;;;5274741;28;9206;-69
2022/06/27 12:29:07;;;;;;;;;11.25;10.50;;;;;;;;5271911;28;8901;-69
2022/06/27 12:31:40;;;;;;;;;3.75;3.75;;;;;;;;5271950;28;8782;-69
2022/06/27 12:34:12;;;;;;;;;0.50;0.50;;;;;;;;5288390;28;8812;-69
2022/06/27 12:36:43;;;;;;;;;0.00;0.00;;;;;;;;5271557;28;8774;-70
2022/06/27 12:39:32;;;;;;;;;0.00;0.00;;;;;;;;5289769;28;11474;-69
2022/06/27 12:42:04;;;;;;;;;0.00;0.00;;;;;;;;5271437;28;8920;-69
2022/06/27 12:44:35;;;;;;;;;0.00;0.00;;;;;;;;5254595;28;9409;-70
2022/06/27 12:47:06;;;;;;;;;0.00;0.00;;;;;;;;5254424;28;8863;-68
2022/06/27 12:49:37;;;;;;;;;0.00;0.00;;;;;;;;5289189;28;8778;-69
2022/06/27 12:52:07;;;;;;;;;1.00;1.00;;;;;;;;5289350;28;8782;-68
2022/06/27 12:54:39;;;;;;;;;4.00;3.00;;;;;;;;5271341;28;8770;-68
2022/06/27 12:57:13;;;;;;;;;1.75;1.75;;;;;;;;5271093;28;10441;-70
2022/06/27 12:59:44;;;;;;;;;0.00;0.00;;;;;;;;5254133;28;8762;-70
2022/06/27 13:02:16;;;;;;;;;3.00;2.00;;;;;;;;5288990;28;8789;-70
2022/06/27 13:04:47;;;;;;;;;2.00;1.50;;;;;;;;5237888;27;8862;-70
2022/06/27 13:07:18;;;;;;;;;0.00;0.00;;;;;;;;5290736;27;8825;-70
2022/06/27 13:09:49;;;;;;;;;2.50;2.50;;;;;;;;5301292;27;8804;-70
2022/06/27 13:12:20;;;;;;;;;1.00;0.50;;;;;;;;5270705;28;8767;-70
2022/06/27 13:14:51;;;;;;;;;0.00;0.00;;;;;;;;5288619;28;8799;-70
2022/06/27 13:17:23;;;;;;;;;0.00;0.00;;;;;;;;5288961;28;8836;-70
2022/06/27 13:19:54;;;;;;;;;0.00;0.00;;;;;;;;5287518;28;8783;-70
2022/06/27 13:22:25;;;;;;;;;0.00;0.00;;;;;;;;5287296;28;8784;-70
2022/06/27 13:24:56;;;;;;;;;0.00;0.00;;;;;;;;5289004;28;8826;-69
2022/06/27 13:27:27;;;;;;;;;0.00;0.00;;;;;;;;5277413;28;8822;-69
2022/06/27 13:29:59;;;;;;;;;0.00;0.00;;;;;;;;5252703;28;8934;-70
2022/06/27 13:32:30;;;;;;;;;0.00;0.00;;;;;;;;5288767;28;8908;-70
2022/06/27 13:35:01;;;;;;;;;0.00;0.00;;;;;;;;5270215;28;8770;-70
2022/06/27 13:37:34;;;;;;;;;0.00;0.00;;;;;;;;5254080;28;8761;-69
2022/06/27 13:40:06;;;;;;;;;0.50;0.50;;;;;;;;5270465;28;8859;-69
2022/06/27 13:42:56;;;;;;;;;1.00;1.00;;;;;;;;5256012;28;9492;-70
2022/06/27 13:45:28;;;;;;;;;0.00;0.00;;;;;;;;5270034;28;8788;-69
2022/06/27 13:48:18;;;;;;;;;1.00;1.00;;;;;;;;5273089;28;8916;-69
2022/06/27 13:50:49;;;;;;;;;1.00;1.00;;;;;;;;5236601;28;8813;-69
2022/06/27 13:53:38;;;;;;;;;1.00;0.00;;;;;;;;5272540;28;8882;-71
2022/06/27 13:56:09;;;;;;;;;0.00;0.00;;;;;;;;5270552;28;8769;-70
2022/06/27 13:58:41;;;;;;;;;0.00;0.00;;;;;;;;5267439;27;8919;-71
2022/06/27 14:01:13;;;;;;;;;0.00;0.00;;;;;;;;5275902;28;9998;-69
2022/06/27 14:03:45;;;;;;;;;0.25;0.25;;;;;;;;5288043;28;8826;-70
2022/06/27 14:09:05;;;;;;;;;0.00;0.00;;;;;;;;5288152;28;9514;-70
2022/06/27 14:11:36;;;;;;;;;0.00;0.00;;;;;;;;5288233;28;8783;-70
2022/06/27 14:14:07;;;;;;;;;0.00;0.00;;;;;;;;5288041;28;8896;-70
2022/06/27 14:16:38;;;;;;;;;0.00;0.00;;;;;;;;5276915;28;9228;-72
2022/06/27 14:19:12;;;;;;;;;0.00;0.00;;;;;;;;5253340;28;8798;-70
2022/06/27 14:21:43;;;;;;;;;0.00;0.00;;;;;;;;5236328;28;8912;-70
2022/06/27 14:24:33;;;;;;;;;1.00;0.75;;;;;;;;5288569;28;8790;-70
2022/06/27 14:27:04;;;;;;;;;0.00;0.00;;;;;;;;5269433;28;8786;-70
2022/06/27 14:29:35;;;;;;;;;0.00;0.00;;;;;;;;5249859;28;8902;-70
2022/06/27 14:32:06;;;;;;;;;0.00;0.00;;;;;;;;5270011;28;8774;-70
2022/06/27 14:34:37;;;;;;;;;0.00;0.00;;;;;;;;5287015;28;8901;-70
2022/06/27 14:37:08;;;;;;;;;0.00;0.00;;;;;;;;5235993;28;8763;-71
2022/06/27 14:39:39;;;;;;;;;0.00;0.00;;;;;;;;5270802;28;8792;-71
2022/06/27 14:42:10;;;;;;;;;0.50;0.50;;;;;;;;5252873;28;8886;-71
2022/06/27 14:44:41;;;;;;;;;1.00;1.00;;;;;;;;5252500;28;8768;-71
2022/06/27 14:47:12;;;;;;;;;0.00;0.00;;;;;;;;5286279;28;8810;-71
2022/06/27 14:49:44;;;;;;;;;0.00;0.00;;;;;;;;5269384;28;9487;-70
2022/06/27 14:52:34;;;;;;;;;0.00;0.00;;;;;;;;5279098;28;8768;-70
2022/06/27 14:55:06;;;;;;;;;0.00;0.00;;;;;;;;5290433;28;8767;-71
2022/06/27 14:57:37;;;;;;;;;0.00;0.00;;;;;;;;5290316;28;8771;-71
2022/06/27 15:00:08;;;;;;;;;0.00;0.00;;;;;;;;5252581;28;8786;-70
2022/06/27 15:02:40;;;;;;;;;0.00;0.00;;;;;;;;5252103;28;11369;-70
2022/06/27 15:05:30;;;;;;;;;1.00;1.00;;;;;;;;5264256;28;9489;-71
2022/06/27 15:08:01;;;;;;;;;0.00;0.00;;;;;;;;5291421;28;8878;-71
2022/06/27 15:11:36;;;;;;;;;0.00;0.00;;;;;;;;5282420;27;8768;-71
2022/06/27 15:13:23;;;;;;;;;0.00;0.00;;;;;;;;5313058;27;8771;-71
2022/06/27 15:15:54;;;;;;;;;0.00;0.00;;;;;;;;5277506;27;8752;-71
2022/06/27 15:18:25;;;;;;;;;0.00;0.00;;;;;;;;5248782;28;9588;-71
2022/06/27 15:20:56;;;;;;;;;0.00;0.00;;;;;;;;5235281;28;8787;-72
2022/06/27 15:23:27;;;;;;;;;0.00;0.00;;;;;;;;5274182;28;8830;-73
2022/06/27 15:25:58;;;;;;;;;0.00;0.00;;;;;;;;5289638;28;8924;-73
2022/06/27 15:28:29;;;;;;;;;0.00;0.00;;;;;;;;5289338;28;8970;-72
2022/06/27 15:31:00;;;;;;;;;0.00;0.00;;;;;;;;5270321;28;8797;-71
2022/06/27 15:33:31;;;;;;;;;0.00;0.00;;;;;;;;5289237;27;9523;-74
2022/06/27 15:36:06;;;;;;;;;0.00;0.00;;;;;;;;5254257;28;8792;-72
2022/06/27 15:38:40;;;;;;;;;0.00;0.00;;;;;;;;5265096;27;8783;-73
2022/06/27 15:41:11;;;;;;;;;0.00;0.00;;;;;;;;5253975;28;8827;-72
2022/06/27 15:43:43;;;;;;;;;0.00;0.00;;;;;;;;5254075;28;8873;-74
2022/06/27 15:46:15;;;;;;;;;0.50;0.50;;;;;;;;5253983;28;10305;-71
2022/06/27 15:48:50;;;;;;;;;1.00;1.00;;;;;;;;5245639;28;8869;-74
2022/06/27 15:51:21;;;;;;;;;1.00;1.00;;;;;;;;5270710;28;9536;-71
2022/06/27 15:53:52;;;;;;;;;1.00;1.00;;;;;;;;5264828;27;8780;-71